sensor_id;sensor_type;location;lat;lon;timestamp;pressure;altitude;pressure_sealevel;temperature;humidity
74921;BME280;63483;47.384;8.860;2023-10-08T00:02:09;95629.38;;;10.58;38.52
74921;BME280;63483;47.384;8.860;2023-10-08T00:04:34;95626.06;;;10.48;37.54
74921;BME280;63483;47.384;8.860;2023-10-08T00:07:04;95624.25;;;10.48;37.69
74921;BME280;63483;47.384;8.860;2023-10-08T00:09:33;95623.44;;;10.48;37.53
74921;BME280;63483;47.384;8.860;2023-10-08T00:12:04;95617.53;;;10.46;37.85
74921;BME280;63483;47.384;8.860;2023-10-08T00:14:30;95626.75;;;10.50;37.93
74921;BME280;63483;47.384;8.860;2023-10-08T00:16:57;95623.97;;;10.51;38.04
74921;BME280;63483;47.384;8.860;2023-10-08T00:19:23;95626.06;;;10.48;38.05
74921;BME280;63483;47.384;8.860;2023-10-08T00:21:49;95632.63;;;10.52;38.02
74921;BME280;63483;47.384;8.860;2023-10-08T00:24:18;95635.56;;;10.49;38.82
74921;BME280;63483;47.384;8.860;2023-10-08T00:26:43;95628.34;;;10.43;37.79
74921;BME280;63483;47.384;8.860;2023-10-08T00:29:09;95631.28;;;10.48;37.78
74921;BME280;63483;47.384;8.860;2023-10-08T00:31:44;95631.66;;;10.53;38.05
74921;BME280;63483;47.384;8.860;2023-10-08T00:34:11;95634.13;;;10.54;38.18
74921;BME280;63483;47.384;8.860;2023-10-08T00:36:38;95641.31;;;10.52;37.93
74921;BME280;63483;47.384;8.860;2023-10-08T00:39:04;95635.25;;;10.52;38.33
74921;BME280;63483;47.384;8.860;2023-10-08T00:41:43;95636.91;;;10.53;38.73
74921;BME280;63483;47.384;8.860;2023-10-08T00:44:10;95635.91;;;10.54;38.46
74921;BME280;63483;47.384;8.860;2023-10-08T00:46:49;95632.31;;;10.55;38.69
74921;BME280;63483;47.384;8.860;2023-10-08T00:49:21;95629.69;;;10.55;38.70
74921;BME280;63483;47.384;8.860;2023-10-08T00:51:47;95630.00;;;10.52;38.75
74921;BME280;63483;47.384;8.860;2023-10-08T00:54:15;95625.91;;;10.49;39.18
74921;BME280;63483;47.384;8.860;2023-10-08T00:56:46;95627.88;;;10.47;39.38
74921;BME280;63483;47.384;8.860;2023-10-08T00:59:18;95621.13;;;10.45;39.39
74921;BME280;63483;47.384;8.860;2023-10-08T01:01:47;95618.81;;;10.42;39.66
74921;BME280;63483;47.384;8.860;2023-10-08T01:04:24;95626.84;;;10.40;39.75
74921;BME280;63483;47.384;8.860;2023-10-08T01:06:57;95622.72;;;10.37;39.74
74921;BME280;63483;47.384;8.860;2023-10-08T01:09:29;95621.06;;;10.36;39.78
74921;BME280;63483;47.384;8.860;2023-10-08T01:12:26;95619.75;;;10.32;39.54
74921;BME280;63483;47.384;8.860;2023-10-08T01:14:57;95625.31;;;10.29;39.57
74921;BME280;63483;47.384;8.860;2023-10-08T01:17:30;95616.44;;;10.30;39.48
74921;BME280;63483;47.384;8.860;2023-10-08T01:19:57;95616.75;;;10.27;39.52
74921;BME280;63483;47.384;8.860;2023-10-08T01:22:34;95616.59;;;10.29;39.53
74921;BME280;63483;47.384;8.860;2023-10-08T01:24:59;95614.84;;;10.29;39.72
74921;BME280;63483;47.384;8.860;2023-10-08T01:27:30;95613.34;;;10.27;39.87
74921;BME280;63483;47.384;8.860;2023-10-08T01:30:00;95601.69;;;10.21;40.13
74921;BME280;63483;47.384;8.860;2023-10-08T01:32:43;95605.56;;;10.17;40.14
74921;BME280;63483;47.384;8.860;2023-10-08T01:35:09;95604.91;;;10.15;40.39
74921;BME280;63483;47.384;8.860;2023-10-08T01:37:48;95604.38;;;10.11;40.51
74921;BME280;63483;47.384;8.860;2023-10-08T01:40:14;95588.84;;;10.10;40.85
74921;BME280;63483;47.384;8.860;2023-10-08T01:42:39;95603.72;;;10.09;40.54
74921;BME280;63483;47.384;8.860;2023-10-08T01:45:05;95604.50;;;10.01;40.46
74921;BME280;63483;47.384;8.860;2023-10-08T01:47:34;95595.31;;;9.97;40.41
74921;BME280;63483;47.384;8.860;2023-10-08T01:50:01;95605.41;;;9.92;40.10
74921;BME280;63483;47.384;8.860;2023-10-08T01:52:31;95591.50;;;9.92;40.17
74921;BME280;63483;47.384;8.860;2023-10-08T01:54:56;95595.31;;;9.97;39.90
74921;BME280;63483;47.384;8.860;2023-10-08T01:57:22;95589.03;;;9.90;40.16
74921;BME280;63483;47.384;8.860;2023-10-08T01:59:48;95588.41;;;9.96;40.01
74921;BME280;63483;47.384;8.860;2023-10-08T02:02:13;95585.63;;;9.98;39.94
74921;BME280;63483;47.384;8.860;2023-10-08T02:04:41;95583.19;;;9.96;40.29
74921;BME280;63483;47.384;8.860;2023-10-08T02:07:06;95583.50;;;9.93;40.80
74921;BME280;63483;47.384;8.860;2023-10-08T02:09:38;95574.00;;;9.92;40.64
74921;BME280;63483;47.384;8.860;2023-10-08T02:12:04;95574.44;;;9.88;40.12
74921;BME280;63483;47.384;8.860;2023-10-08T02:14:29;95573.63;;;9.87;40.02
74921;BME280;63483;47.384;8.860;2023-10-08T02:16:57;95570.94;;;9.79;39.96
74921;BME280;63483;47.384;8.860;2023-10-08T02:19:27;95572.56;;;9.80;39.91
74921;BME280;63483;47.384;8.860;2023-10-08T02:21:56;95573.84;;;9.76;40.05
74921;BME280;63483;47.384;8.860;2023-10-08T02:24:23;95567.44;;;9.88;39.99
74921;BME280;63483;47.384;8.860;2023-10-08T02:26:52;95559.88;;;9.85;39.91
74921;BME280;63483;47.384;8.860;2023-10-08T02:29:20;95554.03;;;9.91;40.05
74921;BME280;63483;47.384;8.860;2023-10-08T02:31:45;95550.78;;;9.89;40.22
74921;BME280;63483;47.384;8.860;2023-10-08T02:34:11;95556.97;;;9.88;40.38
74921;BME280;63483;47.384;8.860;2023-10-08T02:36:38;95563.44;;;9.84;40.48
74921;BME280;63483;47.384;8.860;2023-10-08T02:39:06;95558.22;;;9.84;40.41
74921;BME280;63483;47.384;8.860;2023-10-08T02:41:41;95559.72;;;9.86;40.08
74921;BME280;63483;47.384;8.860;2023-10-08T02:44:08;95559.88;;;9.85;40.16
74921;BME280;63483;47.384;8.860;2023-10-08T02:46:38;95552.69;;;9.87;40.15
74921;BME280;63483;47.384;8.860;2023-10-08T02:49:06;95556.00;;;9.89;40.12
74921;BME280;63483;47.384;8.860;2023-10-08T02:51:35;95565.09;;;9.85;39.85
74921;BME280;63483;47.384;8.860;2023-10-08T02:54:00;95563.69;;;9.91;40.12
74921;BME280;63483;47.384;8.860;2023-10-08T02:56:26;95560.94;;;9.92;40.23
74921;BME280;63483;47.384;8.860;2023-10-08T02:58:57;95577.44;;;9.93;40.39
74921;BME280;63483;47.384;8.860;2023-10-08T03:01:22;95568.47;;;9.95;40.21
74921;BME280;63483;47.384;8.860;2023-10-08T03:03:47;95561.59;;;9.94;40.57
74921;BME280;63483;47.384;8.860;2023-10-08T03:06:13;95564.22;;;9.94;40.72
74921;BME280;63483;47.384;8.860;2023-10-08T03:08:40;95563.25;;;9.95;40.91
74921;BME280;63483;47.384;8.860;2023-10-08T03:11:09;95567.47;;;9.96;40.84
74921;BME280;63483;47.384;8.860;2023-10-08T03:13:43;95566.81;;;9.94;41.01
74921;BME280;63483;47.384;8.860;2023-10-08T03:16:12;95573.84;;;9.94;40.99
74921;BME280;63483;47.384;8.860;2023-10-08T03:18:38;95567.78;;;9.93;40.75
74921;BME280;63483;47.384;8.860;2023-10-08T03:21:10;95569.75;;;9.91;40.99
74921;BME280;63483;47.384;8.860;2023-10-08T03:23:49;95567.44;;;9.88;40.63
74921;BME280;63483;47.384;8.860;2023-10-08T03:26:16;95556.56;;;9.83;41.27
74921;BME280;63483;47.384;8.860;2023-10-08T03:29:03;95558.53;;;9.81;41.61
74921;BME280;63483;47.384;8.860;2023-10-08T03:31:41;95567.03;;;9.83;41.23
74921;BME280;63483;47.384;8.860;2023-10-08T03:34:29;95565.41;;;9.82;41.35
74921;BME280;63483;47.384;8.860;2023-10-08T03:36:59;95555.75;;;9.82;41.19
74921;BME280;63483;47.384;8.860;2023-10-08T03:39:30;95559.19;;;9.83;41.20
74921;BME280;63483;47.384;8.860;2023-10-08T03:42:22;95569.00;;;9.81;41.24
74921;BME280;63483;47.384;8.860;2023-10-08T03:44:49;95562.09;;;9.80;41.28
74921;BME280;63483;47.384;8.860;2023-10-08T03:47:17;95562.41;;;9.77;41.19
74921;BME280;63483;47.384;8.860;2023-10-08T03:49:44;95559.13;;;9.75;41.25
74921;BME280;63483;47.384;8.860;2023-10-08T03:52:10;95560.75;;;9.76;41.21
74921;BME280;63483;47.384;8.860;2023-10-08T03:54:36;95558.81;;;9.78;41.17
74921;BME280;63483;47.384;8.860;2023-10-08T03:57:07;95556.22;;;9.78;41.21
74921;BME280;63483;47.384;8.860;2023-10-08T03:59:39;95552.25;;;9.74;41.40
74921;BME280;63483;47.384;8.860;2023-10-08T04:02:06;95559.13;;;9.75;41.56
74921;BME280;63483;47.384;8.860;2023-10-08T04:04:49;95550.59;;;9.73;41.78
74921;BME280;63483;47.384;8.860;2023-10-08T04:07:25;95550.59;;;9.73;41.88
74921;BME280;63483;47.384;8.860;2023-10-08T04:09:57;95546.97;;;9.65;41.66
74921;BME280;63483;47.384;8.860;2023-10-08T04:12:42;95546.28;;;9.63;41.85
74921;BME280;63483;47.384;8.860;2023-10-08T04:15:16;95544.63;;;9.62;42.24
74921;BME280;63483;47.384;8.860;2023-10-08T04:17:42;95551.81;;;9.60;42.33
74921;BME280;63483;47.384;8.860;2023-10-08T04:20:11;95546.59;;;9.60;42.42
74921;BME280;63483;47.384;8.860;2023-10-08T04:22:55;95538.75;;;9.60;42.53
74921;BME280;63483;47.384;8.860;2023-10-08T04:25:21;95543.00;;;9.61;42.59
74921;BME280;63483;47.384;8.860;2023-10-08T04:27:46;95533.50;;;9.60;41.90
74921;BME280;63483;47.384;8.860;2023-10-08T04:30:15;95540.56;;;9.60;42.09
74921;BME280;63483;47.384;8.860;2023-10-08T04:32:41;95543.97;;;9.60;42.49
74921;BME280;63483;47.384;8.860;2023-10-08T04:35:07;95542.31;;;9.59;42.46
74921;BME280;63483;47.384;8.860;2023-10-08T04:37:34;95543.31;;;9.58;42.51
74921;BME280;63483;47.384;8.860;2023-10-08T04:40:00;95537.25;;;9.58;42.52
74921;BME280;63483;47.384;8.860;2023-10-08T04:42:25;95539.19;;;9.56;42.51
74921;BME280;63483;47.384;8.860;2023-10-08T04:44:51;95546.09;;;9.57;42.42
74921;BME280;63483;47.384;8.860;2023-10-08T04:47:17;95546.09;;;9.57;42.49
74921;BME280;63483;47.384;8.860;2023-10-08T04:49:59;95540.84;;;9.57;42.55
74921;BME280;63483;47.384;8.860;2023-10-08T04:52:24;95545.69;;;9.51;42.53
74921;BME280;63483;47.384;8.860;2023-10-08T04:54:52;95542.28;;;9.51;42.85
74921;BME280;63483;47.384;8.860;2023-10-08T04:57:20;95549.13;;;9.52;42.64
74921;BME280;63483;47.384;8.860;2023-10-08T04:59:48;95542.94;;;9.53;42.65
74921;BME280;63483;47.384;8.860;2023-10-08T05:02:16;95536.75;;;9.54;42.82
74921;BME280;63483;47.384;8.860;2023-10-08T05:04:44;95542.94;;;9.53;42.85
74921;BME280;63483;47.384;8.860;2023-10-08T05:07:28;95543.25;;;9.50;42.86
74921;BME280;63483;47.384;8.860;2023-10-08T05:10:14;95538.97;;;9.49;42.93
74921;BME280;63483;47.384;8.860;2023-10-08T05:12:48;95541.75;;;9.47;43.17
74921;BME280;63483;47.384;8.860;2023-10-08T05:15:36;95539.28;;;9.46;43.05
74921;BME280;63483;47.384;8.860;2023-10-08T05:18:06;95541.75;;;9.47;43.10
74921;BME280;63483;47.384;8.860;2023-10-08T05:20:35;95537.50;;;9.46;43.23
74921;BME280;63483;47.384;8.860;2023-10-08T05:23:19;95552.34;;;9.46;43.52
74921;BME280;63483;47.384;8.860;2023-10-08T05:25:55;95552.66;;;9.43;43.60
74921;BME280;63483;47.384;8.860;2023-10-08T05:28:24;95550.34;;;9.40;44.03
74921;BME280;63483;47.384;8.860;2023-10-08T05:30:50;95548.03;;;9.37;43.66
74921;BME280;63483;47.384;8.860;2023-10-08T05:33:40;95557.53;;;9.38;43.72
74921;BME280;63483;47.384;8.860;2023-10-08T05:36:25;95550.19;;;9.41;43.68
74921;BME280;63483;47.384;8.860;2023-10-08T05:39:00;95550.03;;;9.43;43.90
74921;BME280;63483;47.384;8.860;2023-10-08T05:41:44;95556.38;;;9.40;43.94
74921;BME280;63483;47.384;8.860;2023-10-08T05:44:38;95555.41;;;9.41;44.08
74921;BME280;63483;47.384;8.860;2023-10-08T05:47:05;95566.72;;;9.42;44.28
74921;BME280;63483;47.384;8.860;2023-10-08T05:49:40;95555.28;;;9.43;44.14
74921;BME280;63483;47.384;8.860;2023-10-08T05:52:18;95565.44;;;9.46;44.17
74921;BME280;63483;47.384;8.860;2023-10-08T05:55:15;95570.31;;;9.41;43.94
74921;BME280;63483;47.384;8.860;2023-10-08T05:57:47;95564.38;;;9.39;44.04
74921;BME280;63483;47.384;8.860;2023-10-08T06:00:17;95562.41;;;9.05;41.85
74921;BME280;63483;47.384;8.860;2023-10-08T06:02:55;95562.81;;;8.26;40.19
74921;BME280;63483;47.384;8.860;2023-10-08T06:05:35;95570.34;;;7.63;40.07
74921;BME280;63483;47.384;8.860;2023-10-08T06:08:08;95580.84;;;7.12;40.49
74921;BME280;63483;47.384;8.860;2023-10-08T06:10:38;95578.91;;;6.85;41.13
74921;BME280;63483;47.384;8.860;2023-10-08T06:13:07;95575.94;;;6.59;42.57
74921;BME280;63483;47.384;8.860;2023-10-08T06:15:45;95581.94;;;6.49;42.76
74921;BME280;63483;47.384;8.860;2023-10-08T06:18:18;95576.69;;;6.40;43.40
74921;BME280;63483;47.384;8.860;2023-10-08T06:20:44;95576.69;;;6.40;44.36
74921;BME280;63483;47.384;8.860;2023-10-08T06:23:14;95573.41;;;6.38;44.52
74921;BME280;63483;47.384;8.860;2023-10-08T06:25:43;95582.03;;;6.38;44.26
74921;BME280;63483;47.384;8.860;2023-10-08T06:28:20;95578.28;;;6.31;42.76
74921;BME280;63483;47.384;8.860;2023-10-08T06:30:53;95590.34;;;6.63;46.53
74921;BME280;63483;47.384;8.860;2023-10-08T06:33:20;95590.16;;;6.24;46.87
74921;BME280;63483;47.384;8.860;2023-10-08T06:35:46;95584.16;;;6.02;46.48
74921;BME280;63483;47.384;8.860;2023-10-08T06:38:29;95592.91;;;5.80;46.35
74921;BME280;63483;47.384;8.860;2023-10-08T06:41:02;95586.56;;;5.52;46.08
74921;BME280;63483;47.384;8.860;2023-10-08T06:43:49;95589.69;;;5.34;46.08
74921;BME280;63483;47.384;8.860;2023-10-08T06:46:16;95593.50;;;5.30;46.01
74921;BME280;63483;47.384;8.860;2023-10-08T06:48:44;95594.41;;;5.40;46.66
74921;BME280;63483;47.384;8.860;2023-10-08T06:51:12;95597.50;;;5.34;46.92
74921;BME280;63483;47.384;8.860;2023-10-08T06:53:43;95603.88;;;5.30;47.71
74921;BME280;63483;47.384;8.860;2023-10-08T06:56:13;95598.09;;;5.38;47.57
74921;BME280;63483;47.384;8.860;2023-10-08T06:58:39;95602.00;;;5.64;48.17
74921;BME280;63483;47.384;8.860;2023-10-08T07:01:06;95613.19;;;5.65;47.09
74921;BME280;63483;47.384;8.860;2023-10-08T07:03:33;95605.28;;;5.67;46.85
74921;BME280;63483;47.384;8.860;2023-10-08T07:05:59;95605.59;;;5.73;47.48
74921;BME280;63483;47.384;8.860;2023-10-08T07:08:29;95602.63;;;5.78;45.89
74921;BME280;63483;47.384;8.860;2023-10-08T07:10:57;95610.34;;;5.89;46.20
74921;BME280;63483;47.384;8.860;2023-10-08T07:13:24;95603.94;;;6.14;47.69
74921;BME280;63483;47.384;8.860;2023-10-08T07:15:51;95610.50;;;6.61;49.86
74921;BME280;63483;47.384;8.860;2023-10-08T07:18:17;95615.53;;;7.03;50.65
74921;BME280;63483;47.384;8.860;2023-10-08T07:20:51;95622.44;;;7.43;51.06
74921;BME280;63483;47.384;8.860;2023-10-08T07:23:23;95612.88;;;7.73;50.28
74921;BME280;63483;47.384;8.860;2023-10-08T07:25:58;95619.56;;;8.05;51.22
74921;BME280;63483;47.384;8.860;2023-10-08T07:28:42;95615.09;;;8.35;51.28
74921;BME280;63483;47.384;8.860;2023-10-08T07:31:22;95618.34;;;8.56;50.89
74921;BME280;63483;47.384;8.860;2023-10-08T07:33:49;95620.59;;;8.79;50.75
74921;BME280;63483;47.384;8.860;2023-10-08T07:36:22;95624.91;;;8.98;50.69
74921;BME280;63483;47.384;8.860;2023-10-08T07:38:48;95619.72;;;9.16;50.30
74921;BME280;63483;47.384;8.860;2023-10-08T07:41:13;95631.19;;;9.33;50.18
74921;BME280;63483;47.384;8.860;2023-10-08T07:43:43;95628.03;;;9.47;50.54
74921;BME280;63483;47.384;8.860;2023-10-08T07:46:09;95631.41;;;9.58;50.00
74921;BME280;63483;47.384;8.860;2023-10-08T07:48:36;95628.28;;;9.72;49.72
74921;BME280;63483;47.384;8.860;2023-10-08T07:51:01;95627.19;;;9.83;50.08
74921;BME280;63483;47.384;8.860;2023-10-08T07:53:27;95629.78;;;9.93;49.59
74921;BME280;63483;47.384;8.860;2023-10-08T07:56:06;95634.94;;;10.02;49.50
74921;BME280;63483;47.384;8.860;2023-10-08T07:58:36;95630.44;;;10.13;49.51
74921;BME280;63483;47.384;8.860;2023-10-08T08:01:08;95626.75;;;10.24;50.19
74921;BME280;63483;47.384;8.860;2023-10-08T08:03:39;95636.13;;;10.34;49.54
74921;BME280;63483;47.384;8.860;2023-10-08T08:06:07;95627.34;;;10.44;49.26
74921;BME280;63483;47.384;8.860;2023-10-08T08:08:33;95635.91;;;10.54;49.37
74921;BME280;63483;47.384;8.860;2023-10-08T08:11:01;95637.63;;;10.63;49.66
74921;BME280;63483;47.384;8.860;2023-10-08T08:13:31;95638.31;;;10.73;49.55
74921;BME280;63483;47.384;8.860;2023-10-08T08:15:57;95642.63;;;10.83;50.12
74921;BME280;63483;47.384;8.860;2023-10-08T08:18:36;95629.41;;;10.93;49.75
74921;BME280;63483;47.384;8.860;2023-10-08T08:21:01;95640.75;;;11.01;49.83
74921;BME280;63483;47.384;8.860;2023-10-08T08:23:30;95634.56;;;11.11;49.97
74921;BME280;63483;47.384;8.860;2023-10-08T08:25:56;95647.38;;;11.22;50.26
74921;BME280;63483;47.384;8.860;2023-10-08T08:28:51;95644.47;;;11.33;50.43
74921;BME280;63483;47.384;8.860;2023-10-08T08:31:16;95639.72;;;11.37;51.48
74921;BME280;63483;47.384;8.860;2023-10-08T08:33:44;95648.78;;;11.51;50.73
74921;BME280;63483;47.384;8.860;2023-10-08T08:36:19;95643.03;;;11.64;49.98
74921;BME280;63483;47.384;8.860;2023-10-08T08:38:46;95643.72;;;11.74;50.56
74921;BME280;63483;47.384;8.860;2023-10-08T08:41:13;95640.63;;;11.87;49.40
74921;BME280;63483;47.384;8.860;2023-10-08T08:43:43;95643.94;;;11.97;49.50
74921;BME280;63483;47.384;8.860;2023-10-08T08:46:09;95645.88;;;12.03;50.85
74921;BME280;63483;47.384;8.860;2023-10-08T08:48:39;95643.59;;;12.08;50.82
74921;BME280;63483;47.384;8.860;2023-10-08T08:51:05;95646.56;;;12.22;50.08
74921;BME280;63483;47.384;8.860;2023-10-08T08:53:32;95643.25;;;12.28;50.25
74921;BME280;63483;47.384;8.860;2023-10-08T08:55:58;95654.75;;;12.35;50.95
74921;BME280;63483;47.384;8.860;2023-10-08T08:58:25;95644.88;;;12.45;50.04
74921;BME280;63483;47.384;8.860;2023-10-08T09:00:52;95649.94;;;12.55;50.21
74921;BME280;63483;47.384;8.860;2023-10-08T09:03:18;95640.38;;;12.62;51.35
74921;BME280;63483;47.384;8.860;2023-10-08T09:05:45;95639.56;;;12.78;50.91
74921;BME280;63483;47.384;8.860;2023-10-08T09:08:15;95636.44;;;12.83;51.55
74921;BME280;63483;47.384;8.860;2023-10-08T09:10:43;95639.50;;;12.95;51.57
74921;BME280;63483;47.384;8.860;2023-10-08T09:13:19;95636.19;;;13.01;51.38
74921;BME280;63483;47.384;8.860;2023-10-08T09:15:46;95630.38;;;13.14;51.24
74921;BME280;63483;47.384;8.860;2023-10-08T09:18:12;95635.09;;;13.27;50.82
74921;BME280;63483;47.384;8.860;2023-10-08T09:20:39;95633.22;;;13.35;51.63
74921;BME280;63483;47.384;8.860;2023-10-08T09:23:13;95638.59;;;13.50;51.41
74921;BME280;63483;47.384;8.860;2023-10-08T09:25:43;95635.88;;;13.59;51.83
74921;BME280;63483;47.384;8.860;2023-10-08T09:28:09;95638.50;;;13.67;52.06
74921;BME280;63483;47.384;8.860;2023-10-08T09:30:38;95644.38;;;13.77;51.72
74921;BME280;63483;47.384;8.860;2023-10-08T09:33:06;95645.31;;;13.84;51.20
74921;BME280;63483;47.384;8.860;2023-10-08T09:35:32;95640.13;;;13.91;51.19
74921;BME280;63483;47.384;8.860;2023-10-08T09:37:59;95640.25;;;13.98;50.69
74921;BME280;63483;47.384;8.860;2023-10-08T09:40:24;95638.34;;;14.06;50.02
74921;BME280;63483;47.384;8.860;2023-10-08T09:42:51;95635.13;;;14.19;49.32
74921;BME280;63483;47.384;8.860;2023-10-08T09:45:17;95634.34;;;14.34;50.51
74921;BME280;63483;47.384;8.860;2023-10-08T09:47:50;95640.28;;;14.51;46.58
74921;BME280;63483;47.384;8.860;2023-10-08T09:50:21;95638.69;;;14.65;44.19
74921;BME280;63483;47.384;8.860;2023-10-08T09:53:10;95642.97;;;14.81;43.64
74921;BME280;63483;47.384;8.860;2023-10-08T09:55:46;95638.88;;;14.93;41.08
74921;BME280;63483;47.384;8.860;2023-10-08T09:58:14;95646.75;;;15.08;41.18
74921;BME280;63483;47.384;8.860;2023-10-08T10:00:42;95646.03;;;15.14;41.89
74921;BME280;63483;47.384;8.860;2023-10-08T10:03:10;95641.66;;;15.21;40.08
74921;BME280;63483;47.384;8.860;2023-10-08T10:05:37;95641.22;;;15.33;38.79
74921;BME280;63483;47.384;8.860;2023-10-08T10:08:03;95641.75;;;15.43;38.30
74921;BME280;63483;47.384;8.860;2023-10-08T10:10:36;95642.59;;;15.50;38.10
74921;BME280;63483;47.384;8.860;2023-10-08T10:13:06;95640.47;;;15.60;38.76
74921;BME280;63483;47.384;8.860;2023-10-08T10:15:33;95653.19;;;15.72;38.88
74921;BME280;63483;47.384;8.860;2023-10-08T10:18:13;95648.19;;;15.77;35.98
74921;BME280;63483;47.384;8.860;2023-10-08T10:20:45;95653.34;;;15.85;35.25
74921;BME280;63483;47.384;8.860;2023-10-08T10:23:40;95656.06;;;15.92;36.00
74921;BME280;63483;47.384;8.860;2023-10-08T10:31:44;95665.81;;;16.13;36.22
74921;BME280;63483;47.384;8.860;2023-10-08T10:34:12;95653.50;;;16.20;37.89
74921;BME280;63483;47.384;8.860;2023-10-08T10:36:42;95656.38;;;16.25;38.11
74921;BME280;63483;47.384;8.860;2023-10-08T10:39:09;95660.88;;;16.31;37.45
74921;BME280;63483;47.384;8.860;2023-10-08T10:41:57;95655.84;;;16.37;37.20
74921;BME280;63483;47.384;8.860;2023-10-08T10:44:25;95650.78;;;16.42;35.85
74921;BME280;63483;47.384;8.860;2023-10-08T10:46:51;95649.84;;;16.49;36.25
74921;BME280;63483;47.384;8.860;2023-10-08T10:49:17;95641.56;;;16.59;36.57
74921;BME280;63483;47.384;8.860;2023-10-08T10:51:49;95645.50;;;16.70;34.90
74921;BME280;63483;47.384;8.860;2023-10-08T10:54:19;95654.09;;;16.79;34.29
74921;BME280;63483;47.384;8.860;2023-10-08T10:56:47;95646.78;;;16.81;34.33
74921;BME280;63483;47.384;8.860;2023-10-08T10:59:13;95653.09;;;16.80;33.90
74921;BME280;63483;47.384;8.860;2023-10-08T11:01:48;95642.41;;;16.88;32.58
74921;BME280;63483;47.384;8.860;2023-10-08T11:04:20;95647.28;;;16.91;34.02
74921;BME280;63483;47.384;8.860;2023-10-08T11:06:54;95651.41;;;17.00;33.28
74921;BME280;63483;47.384;8.860;2023-10-08T11:09:24;95647.56;;;17.10;34.26
74921;BME280;63483;47.384;8.860;2023-10-08T11:12:02;95645.78;;;17.17;32.89
74921;BME280;63483;47.384;8.860;2023-10-08T11:14:28;95643.75;;;17.19;32.02
74921;BME280;63483;47.384;8.860;2023-10-08T11:16:55;95649.06;;;17.26;32.58
74921;BME280;63483;47.384;8.860;2023-10-08T11:19:20;95642.56;;;17.28;32.84
74921;BME280;63483;47.384;8.860;2023-10-08T11:21:49;95645.03;;;17.36;32.02
74921;BME280;63483;47.384;8.860;2023-10-08T11:24:29;95647.53;;;17.45;31.99
74921;BME280;63483;47.384;8.860;2023-10-08T11:26:59;95646.72;;;17.51;32.37
74921;BME280;63483;47.384;8.860;2023-10-08T11:29:46;95640.81;;;17.55;32.42
74921;BME280;63483;47.384;8.860;2023-10-08T11:32:14;95634.16;;;17.60;31.18
74921;BME280;63483;47.384;8.860;2023-10-08T11:34:45;95637.63;;;17.67;30.97
74921;BME280;63483;47.384;8.860;2023-10-08T11:37:14;95633.16;;;17.74;32.29
74921;BME280;63483;47.384;8.860;2023-10-08T11:39:46;95622.78;;;17.79;31.98
74921;BME280;63483;47.384;8.860;2023-10-08T11:42:12;95625.84;;;17.83;33.10
74921;BME280;63483;47.384;8.860;2023-10-08T11:44:56;95627.06;;;17.87;32.74
74921;BME280;63483;47.384;8.860;2023-10-08T11:47:27;95627.28;;;17.92;32.47
74921;BME280;63483;47.384;8.860;2023-10-08T11:50:01;95614.22;;;17.97;32.41
74921;BME280;63483;47.384;8.860;2023-10-08T11:52:39;95616.09;;;18.03;32.35
74921;BME280;63483;47.384;8.860;2023-10-08T11:55:10;95609.75;;;18.11;32.46
74921;BME280;63483;47.384;8.860;2023-10-08T11:57:43;95611.16;;;18.14;32.34
74921;BME280;63483;47.384;8.860;2023-10-08T12:00:12;95605.88;;;18.20;32.15
74921;BME280;63483;47.384;8.860;2023-10-08T12:02:50;95604.03;;;18.21;32.64
74921;BME280;63483;47.384;8.860;2023-10-08T12:05:19;95603.63;;;18.24;32.70
74921;BME280;63483;47.384;8.860;2023-10-08T12:07:48;95601.19;;;18.29;32.63
74921;BME280;63483;47.384;8.860;2023-10-08T12:10:16;95595.50;;;18.32;32.10
74921;BME280;63483;47.384;8.860;2023-10-08T12:12:48;95593.03;;;18.37;34.04
74921;BME280;63483;47.384;8.860;2023-10-08T12:15:13;95591.00;;;18.39;33.59
74921;BME280;63483;47.384;8.860;2023-10-08T12:17:48;95589.78;;;18.42;31.89
74921;BME280;63483;47.384;8.860;2023-10-08T12:20:31;95598.13;;;18.46;33.09
74921;BME280;63483;47.384;8.860;2023-10-08T12:22:59;95595.47;;;18.52;32.60
74921;BME280;63483;47.384;8.860;2023-10-08T12:25:24;95596.69;;;18.56;32.73
74921;BME280;63483;47.384;8.860;2023-10-08T12:27:50;95586.47;;;18.60;32.95
74921;BME280;63483;47.384;8.860;2023-10-08T12:30:15;95583.00;;;18.66;33.01
74921;BME280;63483;47.384;8.860;2023-10-08T12:32:40;95581.53;;;18.77;33.33
74921;BME280;63483;47.384;8.860;2023-10-08T12:35:10;95588.84;;;18.82;33.86
74921;BME280;63483;47.384;8.860;2023-10-08T12:37:40;95581.53;;;18.84;33.23
74921;BME280;63483;47.384;8.860;2023-10-08T12:40:09;95584.78;;;18.86;33.40
74921;BME280;63483;47.384;8.860;2023-10-08T12:42:50;95583.94;;;18.92;33.17
74921;BME280;63483;47.384;8.860;2023-10-08T12:45:16;95586.16;;;18.95;32.97
74921;BME280;63483;47.384;8.860;2023-10-08T12:47:47;95585.59;;;19.00;32.92
74921;BME280;63483;47.384;8.860;2023-10-08T12:50:12;95587.59;;;19.04;32.24
74921;BME280;63483;47.384;8.860;2023-10-08T12:52:42;95581.88;;;19.07;32.45
74921;BME280;63483;47.384;8.860;2023-10-08T12:55:12;95579.22;;;19.07;32.58
74921;BME280;63483;47.384;8.860;2023-10-08T12:57:37;95577.00;;;19.04;31.99
74921;BME280;63483;47.384;8.860;2023-10-08T13:00:05;95577.00;;;19.04;33.98
74921;BME280;63483;47.384;8.860;2023-10-08T13:02:30;95573.28;;;19.05;33.88
74921;BME280;63483;47.384;8.860;2023-10-08T13:04:55;95580.66;;;19.03;34.62
74921;BME280;63483;47.384;8.860;2023-10-08T13:07:22;95577.41;;;19.01;34.00
74921;BME280;63483;47.384;8.860;2023-10-08T13:09:48;95577.78;;;18.98;34.82
74921;BME280;63483;47.384;8.860;2023-10-08T13:12:13;95577.78;;;18.98;37.20
74921;BME280;63483;47.384;8.860;2023-10-08T13:14:40;95569.63;;;18.93;37.45
74921;BME280;63483;47.384;8.860;2023-10-08T13:17:06;95574.56;;;18.89;37.32
74921;BME280;63483;47.384;8.860;2023-10-08T13:19:36;95574.34;;;18.91;39.07
74921;BME280;63483;47.384;8.860;2023-10-08T13:22:02;95571.28;;;18.94;39.25
74921;BME280;63483;47.384;8.860;2023-10-08T13:24:34;95572.91;;;19.02;39.11
74921;BME280;63483;47.384;8.860;2023-10-08T13:27:00;95568.59;;;19.07;39.16
74921;BME280;63483;47.384;8.860;2023-10-08T13:29:26;95561.66;;;19.06;38.14